createdAt,value
2023-02-19T00:00:17.656Z,100105.59
2023-02-19T00:00:57.127Z,100104.97
2023-02-19T00:01:39.855Z,100105.81
2023-02-19T00:02:27.622Z,100111.66
2023-02-19T00:03:09.905Z,100103.31
2023-02-19T00:03:56.615Z,100102.47
2023-02-19T00:04:43.883Z,100101.63
2023-02-19T00:05:22.810Z,100101.03
2023-02-19T00:06:27.797Z,100096.03
2023-02-19T00:07:46.958Z,100102.72
2023-02-19T00:09:43.940Z,100104.34
2023-02-19T00:10:22.917Z,100110.19
2023-02-19T00:11:01.662Z,100102.66
2023-02-19T00:11:40.632Z,100108.94
2023-02-19T00:12:19.923Z,100104.13
2023-02-19T00:12:58.626Z,100109.38
2023-02-19T00:13:41.800Z,100106.47
2023-02-19T00:15:00.344Z,100107.28
2023-02-19T00:15:39.997Z,100097.66
2023-02-19T00:18:02.675Z,100112.72
2023-02-19T00:18:47.046Z,100115.66
2023-02-19T00:19:26.674Z,100108.53
2023-02-19T00:20:07.491Z,100108.16
2023-02-19T00:20:47.495Z,100106.06
2023-02-19T00:21:27.737Z,100111.72
2023-02-19T00:22:07.146Z,100113.78
2023-02-19T00:22:46.433Z,100116.53
2023-02-19T00:23:27.106Z,100111.31
2023-02-19T00:24:08.170Z,100109.47
2023-02-19T00:24:49.216Z,100104.19
2023-02-19T00:25:53.218Z,100108.63
2023-02-19T00:26:32.630Z,100111.34
2023-02-19T00:27:12.999Z,100108.84
2023-02-19T00:28:32.554Z,100110.53
2023-02-19T00:29:20.408Z,100111.38
2023-02-19T00:29:59.963Z,100111.16
2023-02-19T00:30:38.931Z,100103.22
2023-02-19T00:31:22.631Z,100110.56
2023-02-19T00:32:01.558Z,100106.59
2023-02-19T00:34:28.682Z,100102.38
2023-02-19T00:35:08.064Z,100099.69
2023-02-19T00:35:47.141Z,100108.25
2023-02-19T00:36:36.884Z,100098.81
2023-02-19T00:37:17.222Z,100095.06
2023-02-19T00:37:56.801Z,100100.94
2023-02-19T00:39:13.616Z,100102.38
2023-02-19T00:39:54.617Z,100095.50
2023-02-19T00:40:33.961Z,100097.38
2023-02-19T00:41:20.676Z,100108.03
2023-02-19T00:42:00.967Z,100095.94
2023-02-19T00:42:39.920Z,100101.97
2023-02-19T00:43:22.102Z,100101.34
2023-02-19T00:44:10.852Z,100106.38
2023-02-19T00:44:49.992Z,100107.81
2023-02-19T00:45:32.018Z,100107.19
2023-02-19T00:46:10.965Z,100096.53
2023-02-19T00:46:53.035Z,100103.84
2023-02-19T00:47:34.171Z,100105.94
2023-02-19T00:48:14.283Z,100100.69
2023-02-19T00:49:30.929Z,100101.16
2023-02-19T00:50:18.521Z,100111.41
2023-02-19T00:50:57.921Z,100106.78
2023-02-19T00:51:39.879Z,100108.00
2023-02-19T00:52:22.122Z,100101.72
2023-02-19T00:53:01.602Z,100097.38
2023-02-19T00:53:40.694Z,100097.38
2023-02-19T00:54:19.655Z,100100.28
2023-02-19T00:55:06.867Z,100103.84
2023-02-19T00:55:45.747Z,100093.81
2023-02-19T00:56:25.103Z,100104.06
2023-02-19T00:57:07.574Z,100096.34
2023-02-19T00:57:56.092Z,100099.84
2023-02-19T00:58:35.716Z,100102.56
2023-02-19T01:00:04.488Z,100100.69
2023-02-19T01:00:43.940Z,100097.38
2023-02-19T01:02:09.800Z,100095.88
2023-02-19T01:02:48.911Z,100103.00
2023-02-19T01:04:08.534Z,100098.59
2023-02-19T01:04:50.466Z,100105.94
2023-02-19T01:06:20.838Z,100113.91
2023-02-19T01:06:59.981Z,100109.50
2023-02-19T01:07:41.818Z,100108.69
2023-02-19T01:08:21.386Z,100104.06
2023-02-19T01:09:01.283Z,100108.25
2023-02-19T01:09:41.089Z,100102.63
2023-02-19T01:10:20.701Z,100099.50
2023-02-19T01:11:40.979Z,100100.34
2023-02-19T01:12:57.920Z,100103.03
2023-02-19T01:14:20.810Z,100095.09
2023-02-19T01:15:00.570Z,100093.63
2023-02-19T01:15:40.817Z,100090.91
2023-02-19T01:17:10.659Z,100092.84
2023-02-19T01:18:14.817Z,100091.34
2023-02-19T01:21:19.469Z,100076.06
2023-02-19T01:22:39.975Z,100075.03
2023-02-19T01:24:00.116Z,100082.34
2023-02-19T01:25:03.432Z,100078.78
2023-02-19T01:25:42.504Z,100087.78
2023-02-19T01:26:25.804Z,100086.94
2023-02-19T01:27:59.017Z,100082.34
2023-02-19T01:28:39.034Z,100080.28
2023-02-19T01:29:17.761Z,100086.97
2023-02-19T01:30:00.118Z,100092.00
2023-02-19T01:30:38.757Z,100090.31
2023-02-19T01:31:31.161Z,100085.72
2023-02-19T01:32:18.666Z,100088.00
2023-02-19T01:32:57.788Z,100084.06
2023-02-19T01:33:36.988Z,100081.78
2023-02-19T01:34:40.266Z,100077.16
2023-02-19T01:36:30.524Z,100088.44
2023-02-19T01:37:17.687Z,100084.03
2023-02-19T01:37:58.175Z,100088.44
2023-02-19T01:38:41.333Z,100093.25
2023-02-19T01:39:20.893Z,100090.72
2023-02-19T01:39:59.912Z,100089.28
2023-02-19T01:40:38.745Z,100080.28
2023-02-19T01:41:24.416Z,100083.00
2023-02-19T01:42:03.269Z,100083.22
2023-02-19T01:42:55.703Z,100090.34
2023-02-19T01:44:08.216Z,100071.50
2023-02-19T01:45:15.956Z,100075.69
2023-02-19T01:45:55.318Z,100072.97
2023-02-19T01:46:39.753Z,100074.03
2023-02-19T01:47:20.454Z,100079.88
2023-02-19T01:48:50.409Z,100084.03
2023-02-19T01:49:29.552Z,100083.84
2023-02-19T01:50:09.515Z,100081.97
2023-02-19T01:51:21.623Z,100086.13
2023-02-19T01:52:17.847Z,100082.38
2023-02-19T01:52:57.380Z,100085.34
2023-02-19T01:53:46.194Z,100079.06
2023-02-19T01:54:29.798Z,100092.84
2023-02-19T01:55:47.418Z,100096.81
2023-02-19T01:56:30.210Z,100097.66
2023-02-19T01:57:55.646Z,100090.78
2023-02-19T01:58:35.395Z,100092.66
2023-02-19T01:59:14.404Z,100086.56
2023-02-19T02:00:03.801Z,100084.50
2023-02-19T02:00:43.842Z,100085.13
2023-02-19T02:01:25.904Z,100080.75
2023-02-19T02:02:14.683Z,100084.91
2023-02-19T02:02:58.060Z,100080.75
2023-02-19T02:03:48.960Z,100082.63
2023-02-19T02:04:31.924Z,100078.22
2023-02-19T02:06:13.456Z,100081.34
2023-02-19T02:08:40.385Z,100076.75
2023-02-19T02:09:42.814Z,100074.69
2023-02-19T02:11:13.430Z,100077.78
2023-02-19T02:11:56.290Z,100079.47
2023-02-19T02:12:40.048Z,100077.41
2023-02-19T02:13:21.539Z,100087.00
2023-02-19T02:14:01.001Z,100089.53
2023-02-19T02:14:42.560Z,100094.97
2023-02-19T02:15:29.817Z,100089.94
2023-02-19T02:18:31.729Z,100088.88
2023-02-19T02:19:55.843Z,100090.97
2023-02-19T02:20:59.538Z,100102.47
2023-02-19T02:23:11.270Z,100094.09
2023-02-19T02:25:08.020Z,100093.91
2023-02-19T02:25:53.753Z,100088.88
2023-02-19T02:27:26.612Z,100091.81
2023-02-19T02:29:08.752Z,100097.84
2023-02-19T02:30:09.581Z,100088.88
2023-02-19T02:30:51.495Z,100092.88
2023-02-19T02:31:38.145Z,100093.06
2023-02-19T02:32:18.893Z,100095.59
2023-02-19T02:33:13.889Z,100087.63
2023-02-19T02:33:54.431Z,100090.56
2023-02-19T02:35:19.408Z,100082.41
2023-02-19T02:36:42.394Z,100089.53
2023-02-19T02:37:54.687Z,100089.53
2023-02-19T02:38:41.822Z,100089.09
2023-02-19T02:39:20.548Z,100089.09
2023-02-19T02:40:03.965Z,100097.66
2023-02-19T02:40:46.528Z,100094.09
2023-02-19T02:41:30.205Z,100090.16
2023-02-19T02:42:27.553Z,100093.72
2023-02-19T02:43:07.942Z,100083.66
2023-02-19T02:43:54.888Z,100086.59
2023-02-19T02:44:35.588Z,100085.13
2023-02-19T02:45:51.238Z,100082.63
2023-02-19T02:46:30.233Z,100088.66
2023-02-19T02:47:06.408Z,100081.34
2023-02-19T02:47:50.694Z,100079.47
2023-02-19T02:48:45.714Z,100081.78
2023-02-19T02:49:24.455Z,100088.66
2023-02-19T02:50:41.523Z,100089.53
2023-02-19T02:51:52.898Z,100085.13
2023-02-19T02:52:50.919Z,100087.66
2023-02-19T02:54:17.369Z,100089.97
2023-02-19T02:54:55.447Z,100085.34
2023-02-19T02:55:41.727Z,100082.41
2023-02-19T02:56:24.824Z,100084.53
2023-02-19T02:57:09.424Z,100075.94
2023-02-19T02:57:52.386Z,100087.84
2023-02-19T02:58:34.206Z,100087.84
2023-02-19T02:59:21.823Z,100088.28
2023-02-19T03:00:00.882Z,100080.31
2023-02-19T03:01:06.439Z,100077.19
2023-02-19T03:02:12.754Z,100071.97
2023-02-19T03:02:53.934Z,100070.31
2023-02-19T03:03:47.777Z,100072.38
2023-02-19T03:05:10.435Z,100078.88
2023-02-19T03:05:52.682Z,100079.28
2023-02-19T03:06:36.463Z,100082.84
2023-02-19T03:07:15.905Z,100088.28
2023-02-19T03:08:15.407Z,100092.44
2023-02-19T03:09:40.641Z,100097.06
2023-02-19T03:10:31.921Z,100093.28
2023-02-19T03:11:31.740Z,100095.38
2023-02-19T03:12:37.708Z,100098.94
2023-02-19T03:13:47.353Z,100105.41
2023-02-19T03:14:59.759Z,100106.25
2023-02-19T03:16:27.535Z,100106.25
2023-02-19T03:17:40.735Z,100101.84
2023-02-19T03:19:20.411Z,100108.09
2023-02-19T03:20:06.165Z,100109.59
2023-02-19T03:22:06.398Z,100100.19
2023-02-19T03:22:47.221Z,100093.47
2023-02-19T03:24:27.405Z,100095.78
2023-02-19T03:26:03.507Z,100090.75
2023-02-19T03:26:53.958Z,100099.75
2023-02-19T03:27:35.659Z,100099.56
2023-02-19T03:28:14.846Z,100092.03
2023-02-19T03:29:15.382Z,100092.44
2023-02-19T03:30:01.937Z,100089.13
2023-02-19T03:31:18.599Z,100092.88
2023-02-19T03:32:09.062Z,100088.03
2023-02-19T03:32:48.611Z,100090.34
2023-02-19T03:33:26.761Z,100086.59
2023-02-19T03:34:13.373Z,100094.09
2023-02-19T03:35:02.501Z,100090.16
2023-02-19T03:36:19.560Z,100094.53
2023-02-19T03:37:09.891Z,100091.59
2023-02-19T03:39:30.787Z,100114.78
2023-02-19T03:41:06.513Z,100109.16
2023-02-19T03:43:28.585Z,100112.94
2023-02-19T03:44:03.401Z,100113.72
2023-02-19T03:45:03.700Z,100116.88
2023-02-19T03:45:45.649Z,100121.28
2023-02-19T03:46:52.221Z,100120.44
2023-02-19T03:48:13.738Z,100125.88
2023-02-19T03:49:53.993Z,100120.44
2023-02-19T03:50:41.558Z,100120.00
2023-02-19T03:51:20.493Z,100125.88
2023-02-19T03:52:22.694Z,100124.81
2023-02-19T03:53:01.670Z,100118.97
2023-02-19T03:54:20.806Z,100124.81
2023-02-19T03:56:02.682Z,100120.84
2023-02-19T03:57:00.100Z,100119.16
2023-02-19T03:58:03.971Z,100122.31
2023-02-19T03:58:54.115Z,100118.56
2023-02-19T04:00:10.263Z,100115.22
2023-02-19T04:01:05.024Z,100110.81
2023-02-19T04:01:56.950Z,100122.31
2023-02-19T04:02:39.549Z,100112.28
2023-02-19T04:03:23.776Z,100111.44
2023-02-19T04:04:20.071Z,100109.13
2023-02-19T04:05:14.023Z,100109.97
2023-02-19T04:06:12.180Z,100106.44
2023-02-19T04:06:57.589Z,100113.53
2023-02-19T04:07:36.850Z,100105.38
2023-02-19T04:08:19.386Z,100110.63
2023-02-19T04:08:58.602Z,100116.06
2023-02-19T04:09:49.974Z,100116.44
2023-02-19T04:10:33.028Z,100117.72
2023-02-19T04:11:18.607Z,100118.34
2023-02-19T04:11:58.905Z,100117.72
2023-02-19T04:12:45.001Z,100122.72
2023-02-19T04:13:32.019Z,100116.25
2023-02-19T04:14:30.540Z,100125.88
2023-02-19T04:15:35.321Z,100120.00
2023-02-19T04:17:05.583Z,100129.63
2023-02-19T04:18:00.806Z,100117.09
2023-02-19T04:20:01.598Z,100113.53
2023-02-19T04:20:44.826Z,100115.66
2023-02-19T04:22:02.725Z,100119.19
2023-02-19T04:22:43.330Z,100109.13
2023-02-19T04:24:19.886Z,100112.28
2023-02-19T04:25:00.975Z,100118.78
2023-02-19T04:26:05.312Z,100112.69
2023-02-19T04:26:46.192Z,100118.75
2023-02-19T04:27:51.260Z,100113.72
2023-02-19T04:28:30.431Z,100116.47
2023-02-19T04:29:09.960Z,100116.25
2023-02-19T04:30:28.528Z,100114.38
2023-02-19T04:32:27.976Z,100121.50
2023-02-19T04:33:08.480Z,100123.16
2023-02-19T04:33:47.924Z,100119.16
2023-02-19T04:34:29.890Z,100113.13
2023-02-19T04:37:25.091Z,100122.13
2023-02-19T04:38:44.506Z,100118.75
2023-02-19T04:39:23.949Z,100111.63
2023-02-19T04:40:03.567Z,100109.97
2023-02-19T04:40:42.852Z,100112.69
2023-02-19T04:41:22.049Z,100115.84
2023-02-19T04:42:04.644Z,100109.34
2023-02-19T04:42:44.814Z,100115.84
2023-02-19T04:43:24.075Z,100113.13
2023-02-19T04:44:06.028Z,100110.19
2023-02-19T04:44:46.021Z,100107.47
2023-02-19T04:45:27.995Z,100105.19
2023-02-19T04:46:07.046Z,100108.94
2023-02-19T04:46:48.690Z,100104.97
2023-02-19T04:47:28.446Z,100104.34
2023-02-19T04:48:08.359Z,100107.47
2023-02-19T04:48:47.901Z,100105.16
2023-02-19T04:51:38.245Z,100103.28
2023-02-19T04:52:17.992Z,100105.59
2023-02-19T04:52:57.895Z,100099.53
2023-02-19T04:53:40.975Z,100107.25
2023-02-19T04:54:57.843Z,100103.28
2023-02-19T04:55:39.111Z,100104.97
2023-02-19T04:56:21.147Z,100107.47
2023-02-19T04:57:56.877Z,100112.06
2023-02-19T04:58:37.536Z,100108.31
2023-02-19T05:00:51.998Z,100103.69
2023-02-19T05:01:33.920Z,100102.03
2023-02-19T05:02:46.589Z,100102.44
2023-02-19T05:03:26.043Z,100100.16
2023-02-19T05:04:05.610Z,100101.81
2023-02-19T05:04:52.721Z,100098.47
2023-02-19T05:05:32.674Z,100097.44
2023-02-19T05:06:14.977Z,100101.19
2023-02-19T05:07:53.608Z,100097.19
2023-02-19T05:08:33.644Z,100092.38
2023-02-19T05:10:05.207Z,100097.00
2023-02-19T05:10:49.675Z,100102.81
2023-02-19T05:11:27.639Z,100096.13
2023-02-19T05:12:06.530Z,100091.75
2023-02-19T05:12:46.452Z,100093.41
2023-02-19T05:14:07.183Z,100081.31
2023-02-19T05:15:25.904Z,100077.94
2023-02-19T05:17:08.642Z,100073.16
2023-02-19T05:18:35.592Z,100083.19
2023-02-19T05:19:16.070Z,100077.31
2023-02-19T05:19:56.074Z,100081.69
2023-02-19T05:20:36.815Z,100083.34
2023-02-19T05:21:15.951Z,100077.69
2023-02-19T05:22:56.407Z,100077.91
2023-02-19T05:23:36.117Z,100072.66
2023-02-19T05:24:16.747Z,100069.75
2023-02-19T05:25:38.741Z,100063.25
2023-02-19T05:26:21.754Z,100068.47
2023-02-19T05:27:01.963Z,100064.50
2023-02-19T05:27:41.618Z,100065.34
2023-02-19T05:28:28.771Z,100062.38
2023-02-19T05:29:09.038Z,100069.69
2023-02-19T05:30:26.193Z,100072.22
2023-02-19T05:31:09.725Z,100071.38
2023-02-19T05:31:49.526Z,100068.66
2023-02-19T05:32:38.587Z,100066.78
2023-02-19T05:33:17.228Z,100070.13
2023-02-19T05:34:04.321Z,100079.97
2023-02-19T05:34:44.542Z,100073.25
2023-02-19T05:35:23.621Z,100070.59
2023-02-19T05:36:07.118Z,100077.69
2023-02-19T05:36:47.573Z,100073.91
2023-02-19T05:37:35.466Z,100077.50
2023-02-19T05:38:15.660Z,100071.41
2023-02-19T05:38:58.222Z,100077.06
2023-02-19T05:39:37.533Z,100068.06
2023-02-19T05:41:05.077Z,100066.81
2023-02-19T05:41:47.172Z,100057.81
2023-02-19T05:42:28.069Z,100069.34
2023-02-19T05:44:39.471Z,100068.91
2023-02-19T05:46:20.231Z,100068.06
2023-02-19T05:46:59.534Z,100067.66
2023-02-19T05:47:46.442Z,100067.88
2023-02-19T05:48:35.559Z,100072.91
2023-02-19T05:49:17.624Z,100064.31
2023-02-19T05:49:59.498Z,100063.06
2023-02-19T05:50:41.623Z,100068.56
2023-02-19T05:51:24.150Z,100057.63
2023-02-19T05:52:17.358Z,100061.19
2023-02-19T05:54:29.654Z,100065.19
2023-02-19T05:55:09.088Z,100068.34
2023-02-19T05:55:48.657Z,100059.13
2023-02-19T05:56:28.304Z,100064.16
2023-02-19T05:57:10.525Z,100053.69
2023-02-19T05:59:15.953Z,100047.84
2023-02-19T06:00:34.672Z,100055.16
2023-02-19T06:01:14.164Z,100060.59
2023-02-19T06:02:32.591Z,100062.94
2023-02-19T06:03:36.110Z,100064.16
2023-02-19T06:05:19.989Z,100061.00
2023-02-19T06:08:52.830Z,100065.19
2023-02-19T06:09:33.426Z,100062.88
2023-02-19T06:10:13.818Z,100063.06
2023-02-19T06:10:53.703Z,100063.72
2023-02-19T06:11:32.966Z,100056.78
2023-02-19T06:12:16.859Z,100051.16
2023-02-19T06:14:50.720Z,100053.88
2023-02-19T06:17:17.264Z,100055.94
2023-02-19T06:17:57.071Z,100051.56
2023-02-19T06:19:13.255Z,100056.34
2023-02-19T06:20:02.168Z,100048.78
2023-02-19T06:21:22.617Z,100060.31
2023-02-19T06:22:02.101Z,100057.97
2023-02-19T06:22:41.241Z,100050.66
2023-02-19T06:23:20.508Z,100052.53
2023-02-19T06:24:24.170Z,100057.97
2023-02-19T06:25:04.985Z,100047.94
2023-02-19T06:28:10.761Z,100060.00
2023-02-19T06:30:08.294Z,100065.69
2023-02-19T06:30:51.250Z,100061.25
2023-02-19T06:31:30.867Z,100052.69
2023-02-19T06:32:49.104Z,100063.38
2023-02-19T06:33:30.140Z,100053.09
2023-02-19T06:34:47.716Z,100057.00
2023-02-19T06:35:27.209Z,100061.00
2023-02-19T06:36:08.738Z,100056.81
2023-02-19T06:37:53.343Z,100060.59
2023-02-19T06:39:11.889Z,100061.22
2023-02-19T06:40:28.697Z,100063.69
2023-02-19T06:41:08.336Z,100065.97
2023-02-19T06:41:58.439Z,100069.13
2023-02-19T06:43:02.664Z,100072.44
2023-02-19T06:43:41.027Z,100068.28
2023-02-19T06:44:52.263Z,100071.00
2023-02-19T06:45:31.573Z,100068.69
2023-02-19T06:46:10.315Z,100070.16
2023-02-19T06:46:49.789Z,100068.88
2023-02-19T06:47:35.404Z,100072.63
2023-02-19T06:48:15.524Z,100069.72
2023-02-19T06:48:57.545Z,100076.81
2023-02-19T06:49:39.633Z,100078.25
2023-02-19T06:50:43.260Z,100062.75
2023-02-19T06:53:27.732Z,100073.75
2023-02-19T06:54:06.357Z,100074.38
2023-02-19T06:54:46.030Z,100074.16
2023-02-19T06:55:28.646Z,100069.53
2023-02-19T06:56:30.639Z,100071.81
2023-02-19T06:57:12.646Z,100066.75
2023-02-19T06:57:52.338Z,100070.13
2023-02-19T06:58:34.044Z,100071.81
2023-02-19T06:59:16.997Z,100066.16
2023-02-19T06:59:56.635Z,100063.31
2023-02-19T07:00:38.317Z,100068.09
2023-02-19T07:01:19.193Z,100066.44
2023-02-19T07:02:00.054Z,100064.56
2023-02-19T07:02:41.120Z,100065.19
2023-02-19T07:03:44.712Z,100062.25
2023-02-19T07:04:23.554Z,100062.19
2023-02-19T07:05:02.478Z,100067.03
2023-02-19T07:05:43.958Z,100059.75
2023-02-19T07:06:25.532Z,100063.72
2023-02-19T07:07:51.613Z,100057.44
2023-02-19T07:08:40.405Z,100055.88
2023-02-19T07:11:19.806Z,100057.28
2023-02-19T07:12:23.059Z,100067.47
2023-02-19T07:13:03.098Z,100062.63
2023-02-19T07:13:42.631Z,100065.94
2023-02-19T07:14:29.893Z,100067.16
2023-02-19T07:15:09.903Z,100069.06
2023-02-19T07:15:52.000Z,100066.50
2023-02-19T07:16:56.370Z,100066.13
2023-02-19T07:18:16.632Z,100061.88
2023-02-19T07:18:55.257Z,100060.00
2023-02-19T07:19:44.382Z,100049.06
2023-02-19T07:20:57.120Z,100050.94
2023-02-19T07:21:37.968Z,100037.50
2023-02-19T07:22:57.634Z,100035.28
2023-02-19T07:23:36.155Z,100025.28
2023-02-19T07:24:15.934Z,100023.31
2023-02-19T07:25:19.595Z,100029.84
2023-02-19T07:25:59.651Z,100034.16
2023-02-19T07:26:46.410Z,100029.91
2023-02-19T07:27:28.596Z,100028.72
2023-02-19T07:28:08.036Z,100026.59
2023-02-19T07:28:55.531Z,100030.09
2023-02-19T07:29:36.647Z,100028.13
2023-02-19T07:30:15.660Z,100025.31
2023-02-19T07:31:01.032Z,100035.09
2023-02-19T07:31:40.659Z,100027.97
2023-02-19T07:32:45.574Z,100026.09
2023-02-19T07:34:27.967Z,100026.03
2023-02-19T07:36:06.559Z,100019.06
2023-02-19T07:37:48.265Z,100019.03
2023-02-19T07:39:09.141Z,100022.47
2023-02-19T07:39:48.197Z,100022.09
2023-02-19T07:40:28.737Z,100021.66
2023-02-19T07:41:11.565Z,100014.00
2023-02-19T07:41:52.601Z,100018.47
2023-02-19T07:42:32.246Z,100020.06
2023-02-19T07:43:11.601Z,100010.84
2023-02-19T07:43:51.646Z,100021.34
2023-02-19T07:44:55.203Z,100024.88
2023-02-19T07:45:38.186Z,100017.50
2023-02-19T07:47:20.129Z,100014.41
2023-02-19T07:48:24.656Z,100006.16
2023-02-19T07:49:35.645Z,100006.16
2023-02-19T07:50:17.627Z,99995.78
2023-02-19T07:50:56.346Z,100007.31
2023-02-19T07:51:39.244Z,100001.41
2023-02-19T07:52:31.502Z,100001.31
2023-02-19T07:53:11.619Z,100005.19
2023-02-19T07:54:15.395Z,99998.66
2023-02-19T07:54:54.371Z,100005.19
2023-02-19T07:55:35.442Z,99998.97
2023-02-19T07:56:14.987Z,99999.19
2023-02-19T07:57:31.661Z,99995.94
2023-02-19T07:59:31.615Z,100007.16
2023-02-19T08:00:52.185Z,100004.63
2023-02-19T08:02:15.192Z,100008.78
2023-02-19T08:04:37.046Z,100008.84
2023-02-19T08:05:57.835Z,100018.84
2023-02-19T08:06:41.591Z,100025.16
2023-02-19T08:08:01.727Z,100022.56
2023-02-19T08:08:41.755Z,100027.31
2023-02-19T08:09:21.561Z,100021.03
2023-02-19T08:10:21.428Z,100020.59
2023-02-19T08:11:38.292Z,100029.91
2023-02-19T08:12:36.426Z,100022.56
2023-02-19T08:14:00.496Z,100027.22
2023-02-19T08:14:48.724Z,100024.50
2023-02-19T08:15:33.364Z,100026.28
2023-02-19T08:16:36.711Z,100027.38
2023-02-19T08:17:30.319Z,100024.78
2023-02-19T08:18:12.348Z,100021.81
2023-02-19T08:18:52.889Z,100018.84
2023-02-19T08:19:32.751Z,100022.78
2023-02-19T08:20:11.606Z,100020.28
2023-02-19T08:20:56.085Z,100026.06
2023-02-19T08:21:35.622Z,100020.72
2023-02-19T08:22:16.443Z,100015.59
2023-02-19T08:22:55.627Z,100014.78
2023-02-19T08:24:34.019Z,100019.59
2023-02-19T08:25:14.591Z,100020.25
2023-02-19T08:26:00.724Z,100029.56
2023-02-19T08:27:57.638Z,100029.78
2023-02-19T08:28:36.408Z,100029.78
2023-02-19T08:29:30.546Z,100025.63
2023-02-19T08:30:34.454Z,100028.81
2023-02-19T08:32:32.070Z,100021.91
2023-02-19T08:33:11.168Z,100018.38
2023-02-19T08:33:53.681Z,100014.22
2023-02-19T08:34:32.281Z,100021.94
2023-02-19T08:35:19.457Z,100016.84
2023-02-19T08:36:04.783Z,100018.25
2023-02-19T08:36:46.565Z,100018.16
2023-02-19T08:37:25.574Z,100013.88
2023-02-19T08:38:07.486Z,100012.53
2023-02-19T08:38:49.648Z,100015.28
2023-02-19T08:39:32.937Z,100012.53
2023-02-19T08:40:13.483Z,100007.44
2023-02-19T08:40:52.665Z,100018.41
2023-02-19T08:41:41.594Z,100025.06
2023-02-19T08:42:24.026Z,100028.38
2023-02-19T08:43:06.694Z,100027.44
2023-02-19T08:44:28.167Z,100031.88
2023-02-19T08:45:08.070Z,100031.53
2023-02-19T08:45:48.913Z,100029.31
2023-02-19T08:47:00.797Z,100031.94
2023-02-19T08:48:19.576Z,100035.34
2023-02-19T08:49:39.899Z,100041.47
2023-02-19T08:51:07.419Z,100038.91
2023-02-19T08:51:46.641Z,100040.09
2023-02-19T08:53:06.150Z,100042.47
2023-02-19T08:53:48.734Z,100037.09
2023-02-19T08:54:52.045Z,100047.63
2023-02-19T08:55:31.812Z,100044.28
2023-02-19T08:56:16.557Z,100035.78
2023-02-19T08:57:35.821Z,100039.97
2023-02-19T08:58:39.411Z,100039.03
2023-02-19T08:59:59.688Z,100031.50
2023-02-19T09:01:03.711Z,100024.53
2023-02-19T09:02:23.909Z,100026.19
2023-02-19T09:03:03.721Z,100028.34
2023-02-19T09:03:44.225Z,100024.56
2023-02-19T09:05:45.333Z,100022.19
2023-02-19T09:06:27.653Z,100020.16
2023-02-19T09:07:46.085Z,100013.25
2023-02-19T09:09:04.118Z,100025.88
2023-02-19T09:11:03.635Z,100022.72
2023-02-19T09:11:42.529Z,100021.03
2023-02-19T09:12:33.744Z,100022.81
2023-02-19T09:15:15.638Z,100024.13
2023-02-19T09:16:40.651Z,100026.22
2023-02-19T09:17:19.615Z,100030.28
2023-02-19T09:18:23.888Z,100030.28
2023-02-19T09:19:41.885Z,100029.22
2023-02-19T09:21:25.502Z,100025.28
2023-02-19T09:22:04.235Z,100019.13
2023-02-19T09:23:07.878Z,100015.31
2023-02-19T09:23:50.324Z,100017.91
2023-02-19T09:24:29.770Z,100019.84
2023-02-19T09:25:33.386Z,100019.00
2023-02-19T09:28:25.625Z,100007.00
2023-02-19T09:29:29.196Z,100002.38
2023-02-19T09:31:06.594Z,100004.75
2023-02-19T09:34:07.842Z,100006.91
2023-02-19T09:35:12.142Z,100017.00
2023-02-19T09:35:55.750Z,100011.06
2023-02-19T09:36:35.907Z,100021.28
2023-02-19T09:37:14.876Z,100016.06
2023-02-19T09:38:02.099Z,100018.78
2023-02-19T09:38:42.250Z,100016.28
2023-02-19T09:39:46.336Z,100008.06
2023-02-19T09:41:32.053Z,100012.13
2023-02-19T09:42:52.076Z,100022.84
2023-02-19T09:43:58.665Z,100026.16
2023-02-19T09:45:25.098Z,100011.44
2023-02-19T09:47:47.267Z,100016.44
2023-02-19T09:49:38.838Z,99998.84
2023-02-19T09:51:11.259Z,100004.19
2023-02-19T09:52:54.420Z,99993.47
2023-02-19T09:53:43.649Z,100006.78
2023-02-19T09:55:36.914Z,100000.16
2023-02-19T09:56:17.294Z,99994.91
2023-02-19T09:58:02.577Z,99994.78
2023-02-19T09:58:44.366Z,99998.47
2023-02-19T09:59:40.887Z,99999.75
2023-02-19T10:00:21.440Z,100002.38
2023-02-19T10:01:26.960Z,99993.09
2023-02-19T10:02:30.969Z,100001.78
2023-02-19T10:03:14.540Z,99992.25
2023-02-19T10:04:10.185Z,99998.56
2023-02-19T10:04:52.606Z,99993.91
2023-02-19T10:07:15.368Z,99984.19
2023-02-19T10:07:58.731Z,99978.47
2023-02-19T10:08:48.620Z,99971.34
2023-02-19T10:09:31.390Z,99969.31
2023-02-19T10:10:14.340Z,99974.09
2023-02-19T10:10:55.065Z,99956.94
2023-02-19T10:11:34.808Z,99962.88
2023-02-19T10:12:24.953Z,99953.94
2023-02-19T10:13:28.197Z,99950.16
2023-02-19T10:14:19.503Z,99949.00
2023-02-19T10:15:23.169Z,99939.00
2023-02-19T10:17:27.507Z,99939.59
2023-02-19T10:18:49.821Z,99929.34
2023-02-19T10:20:15.789Z,99907.44
2023-02-19T10:20:57.643Z,99904.25
2023-02-19T10:21:41.382Z,99888.31
2023-02-19T10:22:21.629Z,99880.25
2023-02-19T10:23:19.500Z,99869.72
2023-02-19T10:23:59.207Z,99861.50
2023-02-19T10:24:51.890Z,99848.03
2023-02-19T10:25:43.356Z,99858.47
2023-02-19T10:26:27.696Z,99867.59
2023-02-19T10:27:18.264Z,99887.09
2023-02-19T10:28:07.306Z,99900.25
2023-02-19T10:28:49.710Z,99906.34
2023-02-19T10:30:16.797Z,99920.97
2023-02-19T10:31:01.413Z,99927.63
2023-02-19T10:32:10.438Z,99917.06
2023-02-19T10:33:01.285Z,99907.13
2023-02-19T10:33:55.946Z,99908.78
2023-02-19T10:34:37.081Z,99892.97
2023-02-19T10:35:30.242Z,99893.03
2023-02-19T10:36:37.618Z,99888.91
2023-02-19T10:38:59.510Z,99898.31
2023-02-19T10:39:49.968Z,99897.47
2023-02-19T10:40:32.378Z,99892.00
2023-02-19T10:41:30.880Z,99884.19
2023-02-19T10:42:50.815Z,99887.25
2023-02-19T10:43:37.155Z,99886.94
2023-02-19T10:45:06.284Z,99904.38
2023-02-19T10:45:50.454Z,99895.75
2023-02-19T10:47:33.062Z,99901.97
2023-02-19T10:48:57.423Z,99891.28
2023-02-19T10:49:44.190Z,99885.09
2023-02-19T10:50:56.091Z,99889.84
2023-02-19T10:52:42.559Z,99881.78
2023-02-19T10:54:41.349Z,99890.94
2023-02-19T10:55:40.847Z,99896.91
2023-02-19T10:56:21.340Z,99900.81
2023-02-19T10:57:00.376Z,99902.88
2023-02-19T10:57:40.587Z,99898.66
2023-02-19T11:01:42.307Z,99892.66
2023-02-19T11:03:24.104Z,99895.97
2023-02-19T11:04:18.277Z,99898.66
2023-02-19T11:05:16.668Z,99889.66
2023-02-19T11:06:08.397Z,99888.84
2023-02-19T11:06:49.033Z,99889.50
2023-02-19T11:07:56.982Z,99886.16
2023-02-19T11:09:01.484Z,99873.72
2023-02-19T11:09:53.836Z,99874.28
2023-02-19T11:10:42.806Z,99875.34
2023-02-19T11:11:50.837Z,99868.75
2023-02-19T11:13:38.005Z,99865.28
2023-02-19T11:15:19.917Z,99872.44
2023-02-19T11:16:46.763Z,99867.72
2023-02-19T11:17:27.300Z,99852.84
2023-02-19T11:18:32.996Z,99857.16
2023-02-19T11:20:08.470Z,99834.19